ΕΜΥ, Εθνική Μετεωρολογική Υπηρεσία - Δελτία Καιρού, Προγνώσεις

ΑΕΡΟΝΑΥΤΙΛΙΑ

GREEK AIRPORTS CODES

LGKY 071600Z 35017G27KT 9999 BKN020 05/01 Q1021 RMK SCT180 HAND WIND ANEMOMETER OBSERVATION=

EUROPEAN AIRPORTS CODES

LFPO 080000Z 36001KT CAVOK M01/M03 Q1036 NOSIG=